DKH124 ZGHA-ZSPD
Flight info
| Callsign | DKH124 |
|---|---|
| Flight time | 1h 21m |
| Altitude | 37100 |
| Route | PAT9X PATVO W227 OMKOB DCT ELNEX G204 SHZ W58 XSY |
| Aircraft | A321/M-SDE3FGHIRWY/LB1 |
Departure
| Time | 2026-05-06 13:46 |
|---|---|
| Airport | Changsha Huanghua International Airport (ZGHA) |
Arrival
| Time | 2026-05-06 15:08 |
|---|---|
| Airport | Shanghai Pudong International Airport (ZSPD) |
| Time | Latitude | Longitude | Altitude | Speed | Heading |
|---|---|---|---|---|---|
| 2026-05-06 13:14 | 28.18790 | 113.21593 | 156 ft | 0 kts | 220° |
| 2026-05-06 13:25 | 28.18793 | 113.21596 | 210 ft | 3 kts | 220° |
| 2026-05-06 13:25 | 28.18801 | 113.21603 | 210 ft | 3 kts | 220° |
| 2026-05-06 13:35 | 28.18802 | 113.21605 | 212 ft | 4 kts | 220° |
| 2026-05-06 13:35 | 28.18823 | 113.21623 | 221 ft | 19 kts | 217° |
| 2026-05-06 13:35 | 28.18844 | 113.21641 | 216 ft | 23 kts | 215° |
| 2026-05-06 13:35 | 28.18867 | 113.21659 | 212 ft | 16 kts | 217° |
| 2026-05-06 13:36 | 28.18875 | 113.21666 | 212 ft | 35 kts | 220° |
| 2026-05-06 13:39 | 28.18868 | 113.21660 | 210 ft | 3 kts | 216° |
| 2026-05-06 13:39 | 28.18858 | 113.21660 | 217 ft | 1 kts | 177° |
| 2026-05-06 13:39 | 28.18829 | 113.21667 | 210 ft | 11 kts | 163° |
| 2026-05-06 13:39 | 28.18739 | 113.21690 | 211 ft | 13 kts | 175° |
| 2026-05-06 13:40 | 28.18650 | 113.21687 | 216 ft | 12 kts | 180° |
| 2026-05-06 13:40 | 28.18602 | 113.21695 | 213 ft | 4 kts | 152° |
| 2026-05-06 13:40 | 28.18590 | 113.21720 | 218 ft | 3 kts | 110° |
| 2026-05-06 13:40 | 28.18586 | 113.21743 | 217 ft | 2 kts | 94° |
| 2026-05-06 13:41 | 28.18580 | 113.21782 | 213 ft | 8 kts | 114° |
| 2026-05-06 13:41 | 28.18540 | 113.21808 | 215 ft | 6 kts | 169° |
| 2026-05-06 13:41 | 28.18501 | 113.21812 | 218 ft | 5 kts | 176° |
| 2026-05-06 13:41 | 28.18468 | 113.21813 | 216 ft | 4 kts | 179° |
| 2026-05-06 13:42 | 28.18442 | 113.21814 | 102 ft | 3 kts | 178° |
| 2026-05-06 13:42 | 28.18417 | 113.21816 | 222 ft | 5 kts | 176° |
| 2026-05-06 13:42 | 28.18384 | 113.21818 | 215 ft | 8 kts | 176° |
| 2026-05-06 13:42 | 28.18298 | 113.21822 | 216 ft | 12 kts | 177° |
| 2026-05-06 13:43 | 28.18232 | 113.21828 | 216 ft | 8 kts | 175° |
| 2026-05-06 13:43 | 28.18178 | 113.21831 | 217 ft | 7 kts | 177° |
| 2026-05-06 13:43 | 28.18124 | 113.21834 | 220 ft | 11 kts | 179° |
| 2026-05-06 13:43 | 28.18032 | 113.21838 | 221 ft | 14 kts | 177° |
| 2026-05-06 13:44 | 28.17942 | 113.21844 | 219 ft | 12 kts | 177° |
| 2026-05-06 13:44 | 28.17860 | 113.21849 | 220 ft | 11 kts | 176° |
| 2026-05-06 13:44 | 28.17790 | 113.21862 | 221 ft | 10 kts | 158° |
| 2026-05-06 13:44 | 28.17752 | 113.21909 | 225 ft | 7 kts | 112° |
| 2026-05-06 13:45 | 28.17746 | 113.21953 | 223 ft | 5 kts | 90° |
| 2026-05-06 13:45 | 28.17777 | 113.22031 | 222 ft | 8 kts | 32° |
| 2026-05-06 13:45 | 28.17829 | 113.22041 | 222 ft | 8 kts | 358° |
| 2026-05-06 13:46 | 28.17989 | 113.22031 | 221 ft | 58 kts | 356° |
| 2026-05-06 13:46 | 28.18667 | 113.21989 | 213 ft | 133 kts | 356° |
| 2026-05-06 13:46 | 28.19771 | 113.21917 | 326 ft | 174 kts | 357° |
| 2026-05-06 13:46 | 28.20949 | 113.21906 | 1086 ft | 173 kts | 1° |
| 2026-05-06 13:47 | 28.22172 | 113.21916 | 1584 ft | 183 kts | 356° |
| 2026-05-06 13:47 | 28.23622 | 113.21803 | 1698 ft | 231 kts | 353° |
| 2026-05-06 13:47 | 28.25139 | 113.21590 | 2621 ft | 213 kts | 352° |
| 2026-05-06 13:47 | 28.26679 | 113.21425 | 2941 ft | 233 kts | 356° |
| 2026-05-06 13:48 | 28.28328 | 113.21323 | 3456 ft | 240 kts | 357° |
| 2026-05-06 13:48 | 28.30012 | 113.21239 | 4104 ft | 244 kts | 357° |
| 2026-05-06 13:48 | 28.31718 | 113.21153 | 4776 ft | 247 kts | 356° |
| 2026-05-06 13:48 | 28.33419 | 113.21061 | 5459 ft | 249 kts | 356° |
| 2026-05-06 13:49 | 28.35161 | 113.20964 | 6154 ft | 252 kts | 357° |
| 2026-05-06 13:49 | 28.36886 | 113.21307 | 6783 ft | 256 kts | 27° |
| 2026-05-06 13:49 | 28.38218 | 113.22615 | 7423 ft | 256 kts | 60° |
| 2026-05-06 13:49 | 28.38773 | 113.24507 | 8053 ft | 254 kts | 89° |
| 2026-05-06 13:50 | 28.38871 | 113.26516 | 8700 ft | 257 kts | 90° |
| 2026-05-06 13:50 | 28.38958 | 113.28558 | 9313 ft | 262 kts | 89° |
| 2026-05-06 13:50 | 28.39041 | 113.30618 | 9846 ft | 270 kts | 91° |
| 2026-05-06 13:50 | 28.38688 | 113.32768 | 10029 ft | 287 kts | 118° |
| 2026-05-06 13:51 | 28.37453 | 113.34594 | 10224 ft | 301 kts | 147° |
| 2026-05-06 13:51 | 28.35610 | 113.35805 | 10397 ft | 319 kts | 156° |
| 2026-05-06 13:51 | 28.33543 | 113.36995 | 10536 ft | 342 kts | 156° |
| 2026-05-06 13:51 | 28.31350 | 113.38240 | 10649 ft | 364 kts | 156° |
| 2026-05-06 13:52 | 28.29021 | 113.39563 | 10755 ft | 384 kts | 156° |
| 2026-05-06 13:52 | 28.26579 | 113.40961 | 10961 ft | 399 kts | 156° |
| 2026-05-06 13:52 | 28.24118 | 113.42386 | 11426 ft | 405 kts | 156° |
| 2026-05-06 13:52 | 28.21595 | 113.43857 | 11946 ft | 409 kts | 156° |
| 2026-05-06 13:53 | 28.19054 | 113.45343 | 12507 ft | 413 kts | 155° |
| 2026-05-06 13:53 | 28.16515 | 113.46900 | 13026 ft | 418 kts | 150° |
| 2026-05-06 13:53 | 28.14176 | 113.48909 | 13521 ft | 426 kts | 140° |
| 2026-05-06 13:53 | 28.12177 | 113.51411 | 13988 ft | 433 kts | 129° |
| 2026-05-06 13:54 | 28.10609 | 113.54341 | 14437 ft | 439 kts | 118° |
| 2026-05-06 13:54 | 28.09333 | 113.57496 | 14891 ft | 442 kts | 116° |
| 2026-05-06 13:54 | 28.08051 | 113.60666 | 15348 ft | 444 kts | 117° |
| 2026-05-06 13:54 | 28.06772 | 113.63813 | 15826 ft | 446 kts | 117° |
| 2026-05-06 13:55 | 28.05598 | 113.67070 | 16265 ft | 451 kts | 110° |
| 2026-05-06 13:55 | 28.04885 | 113.70554 | 16624 ft | 457 kts | 99° |
| 2026-05-06 13:55 | 28.04714 | 113.74161 | 17016 ft | 462 kts | 89° |
| 2026-05-06 13:55 | 28.05061 | 113.77797 | 17408 ft | 466 kts | 83° |
| 2026-05-06 13:56 | 28.05524 | 113.81437 | 17808 ft | 469 kts | 83° |
| 2026-05-06 13:56 | 28.05982 | 113.85101 | 18184 ft | 472 kts | 83° |
| 2026-05-06 13:56 | 28.06436 | 113.88787 | 18536 ft | 474 kts | 83° |
| 2026-05-06 13:56 | 28.06881 | 113.92445 | 18870 ft | 477 kts | 83° |
| 2026-05-06 13:57 | 28.07332 | 113.96176 | 19210 ft | 479 kts | 83° |
| 2026-05-06 13:57 | 28.07783 | 113.99922 | 19553 ft | 482 kts | 83° |
| 2026-05-06 13:57 | 28.08234 | 114.03690 | 19888 ft | 484 kts | 83° |
| 2026-05-06 13:57 | 28.08687 | 114.07479 | 20216 ft | 487 kts | 83° |
| 2026-05-06 13:58 | 28.09144 | 114.11283 | 20569 ft | 488 kts | 83° |
| 2026-05-06 13:58 | 28.09607 | 114.15106 | 20891 ft | 491 kts | 83° |
| 2026-05-06 13:58 | 28.10075 | 114.18944 | 21213 ft | 494 kts | 83° |
| 2026-05-06 13:58 | 28.10538 | 114.22757 | 21526 ft | 496 kts | 83° |
| 2026-05-06 13:59 | 28.11003 | 114.26631 | 21848 ft | 499 kts | 83° |
| 2026-05-06 13:59 | 28.11469 | 114.30544 | 22167 ft | 501 kts | 83° |
| 2026-05-06 13:59 | 28.11934 | 114.34470 | 22467 ft | 504 kts | 83° |
| 2026-05-06 13:59 | 28.12432 | 114.38407 | 22771 ft | 507 kts | 82° |
| 2026-05-06 14:00 | 28.12978 | 114.42326 | 23022 ft | 510 kts | 81° |
| 2026-05-06 14:00 | 28.13570 | 114.46304 | 23298 ft | 513 kts | 80° |
| 2026-05-06 14:00 | 28.14169 | 114.50237 | 23556 ft | 515 kts | 80° |
| 2026-05-06 14:00 | 28.14786 | 114.54293 | 23814 ft | 517 kts | 81° |
| 2026-05-06 14:01 | 28.15374 | 114.58266 | 24068 ft | 519 kts | 81° |
| 2026-05-06 14:01 | 28.15953 | 114.62310 | 24336 ft | 521 kts | 81° |
| 2026-05-06 14:01 | 28.16524 | 114.66375 | 24588 ft | 523 kts | 81° |
| 2026-05-06 14:01 | 28.17093 | 114.70455 | 24823 ft | 525 kts | 81° |
| 2026-05-06 14:02 | 28.17663 | 114.74550 | 25044 ft | 527 kts | 81° |
| 2026-05-06 14:02 | 28.18240 | 114.78662 | 25274 ft | 529 kts | 81° |
| 2026-05-06 14:02 | 28.18821 | 114.82779 | 25541 ft | 529 kts | 81° |
| 2026-05-06 14:02 | 28.19401 | 114.86882 | 25849 ft | 528 kts | 81° |
| 2026-05-06 14:03 | 28.19972 | 114.90943 | 26153 ft | 528 kts | 81° |
| 2026-05-06 14:03 | 28.20546 | 114.95046 | 26472 ft | 527 kts | 81° |
| 2026-05-06 14:03 | 28.21118 | 114.99145 | 26746 ft | 527 kts | 81° |
| 2026-05-06 14:03 | 28.21690 | 115.03246 | 26748 ft | 527 kts | 81° |
| 2026-05-06 14:04 | 28.22260 | 115.07348 | 26633 ft | 526 kts | 81° |
| 2026-05-06 14:04 | 28.22830 | 115.11450 | 26431 ft | 526 kts | 81° |
| 2026-05-06 14:04 | 28.23400 | 115.15549 | 26473 ft | 526 kts | 81° |
| 2026-05-06 14:04 | 28.23965 | 115.19646 | 26466 ft | 527 kts | 81° |
| 2026-05-06 14:05 | 28.24515 | 115.23694 | 26464 ft | 527 kts | 81° |
| 2026-05-06 14:05 | 28.25072 | 115.27803 | 26465 ft | 527 kts | 81° |
| 2026-05-06 14:05 | 28.25631 | 115.31908 | 26465 ft | 527 kts | 81° |
| 2026-05-06 14:05 | 28.26194 | 115.36010 | 26469 ft | 527 kts | 81° |
| 2026-05-06 14:06 | 28.26756 | 115.40119 | 26464 ft | 527 kts | 81° |
| 2026-05-06 14:06 | 28.27315 | 115.44225 | 26468 ft | 527 kts | 81° |
| 2026-05-06 14:06 | 28.27869 | 115.48340 | 26464 ft | 527 kts | 82° |
| 2026-05-06 14:06 | 28.28577 | 115.52421 | 26465 ft | 527 kts | 75° |
| 2026-05-06 14:07 | 28.29736 | 115.56297 | 26465 ft | 526 kts | 67° |
| 2026-05-06 14:07 | 28.31128 | 115.60139 | 26462 ft | 526 kts | 66° |
| 2026-05-06 14:07 | 28.32515 | 115.63981 | 26464 ft | 526 kts | 67° |
| 2026-05-06 14:07 | 28.33897 | 115.67833 | 26466 ft | 526 kts | 67° |
| 2026-05-06 14:08 | 28.35272 | 115.71676 | 26467 ft | 526 kts | 67° |
| 2026-05-06 14:08 | 28.36647 | 115.75531 | 26466 ft | 527 kts | 67° |
| 2026-05-06 14:08 | 28.38020 | 115.79388 | 26465 ft | 526 kts | 67° |
| 2026-05-06 14:08 | 28.39390 | 115.83245 | 26463 ft | 527 kts | 67° |
| 2026-05-06 14:09 | 28.40742 | 115.87049 | 26466 ft | 527 kts | 67° |
| 2026-05-06 14:09 | 28.42112 | 115.90905 | 26472 ft | 527 kts | 68° |
| 2026-05-06 14:09 | 28.43482 | 115.94767 | 26470 ft | 527 kts | 68° |
| 2026-05-06 14:09 | 28.44850 | 115.98630 | 26473 ft | 527 kts | 68° |
| 2026-05-06 14:10 | 28.46220 | 116.02497 | 26468 ft | 527 kts | 68° |
| 2026-05-06 14:10 | 28.47589 | 116.06357 | 26464 ft | 527 kts | 68° |
| 2026-05-06 14:10 | 28.48957 | 116.10219 | 26471 ft | 527 kts | 68° |
| 2026-05-06 14:10 | 28.50322 | 116.14082 | 26471 ft | 527 kts | 68° |
| 2026-05-06 14:11 | 28.51669 | 116.17903 | 26469 ft | 527 kts | 68° |
| 2026-05-06 14:11 | 28.53027 | 116.21756 | 26470 ft | 527 kts | 68° |
| 2026-05-06 14:11 | 28.54392 | 116.25633 | 26471 ft | 527 kts | 68° |
| 2026-05-06 14:11 | 28.55756 | 116.29509 | 26471 ft | 527 kts | 68° |
| 2026-05-06 14:12 | 28.57113 | 116.33372 | 26475 ft | 527 kts | 68° |
| 2026-05-06 14:12 | 28.58477 | 116.37260 | 26475 ft | 528 kts | 68° |
| 2026-05-06 14:12 | 28.59835 | 116.41136 | 26479 ft | 527 kts | 68° |
| 2026-05-06 14:12 | 28.61193 | 116.45013 | 26478 ft | 527 kts | 68° |
| 2026-05-06 14:13 | 28.62548 | 116.48896 | 26476 ft | 527 kts | 68° |
| 2026-05-06 14:13 | 28.63882 | 116.52722 | 26479 ft | 527 kts | 68° |
| 2026-05-06 14:13 | 28.65235 | 116.56601 | 26473 ft | 527 kts | 68° |
| 2026-05-06 14:13 | 28.66587 | 116.60477 | 26477 ft | 527 kts | 68° |
| 2026-05-06 14:14 | 28.67942 | 116.64357 | 26484 ft | 527 kts | 68° |
| 2026-05-06 14:14 | 28.69293 | 116.68234 | 26484 ft | 527 kts | 68° |
| 2026-05-06 14:14 | 28.70642 | 116.72111 | 26485 ft | 527 kts | 68° |
| 2026-05-06 14:14 | 28.71993 | 116.75993 | 26494 ft | 527 kts | 68° |
| 2026-05-06 14:15 | 28.73343 | 116.79875 | 26488 ft | 527 kts | 68° |
| 2026-05-06 14:15 | 28.74691 | 116.83759 | 26487 ft | 527 kts | 68° |
| 2026-05-06 14:15 | 28.76036 | 116.87642 | 26480 ft | 527 kts | 68° |
| 2026-05-06 14:15 | 28.77363 | 116.91476 | 26490 ft | 526 kts | 68° |
| 2026-05-06 14:16 | 28.78703 | 116.95349 | 26489 ft | 526 kts | 68° |
| 2026-05-06 14:16 | 28.80043 | 116.99225 | 26492 ft | 525 kts | 68° |
| 2026-05-06 14:16 | 28.81378 | 117.03101 | 26490 ft | 525 kts | 68° |
| 2026-05-06 14:16 | 28.82712 | 117.06981 | 26493 ft | 525 kts | 68° |
| 2026-05-06 14:17 | 28.84042 | 117.10861 | 26492 ft | 525 kts | 69° |
| 2026-05-06 14:17 | 28.85371 | 117.14741 | 26497 ft | 525 kts | 69° |
| 2026-05-06 14:17 | 28.86701 | 117.18622 | 26492 ft | 525 kts | 68° |
| 2026-05-06 14:17 | 28.87582 | 117.21187 | 26510 ft | 524 kts | 68° |
| 2026-05-06 14:18 | 28.88464 | 117.23754 | 26500 ft | 524 kts | 68° |
| 2026-05-06 14:18 | 28.90671 | 117.30192 | 26500 ft | 524 kts | 69° |
| 2026-05-06 14:18 | 28.91563 | 117.32810 | 26501 ft | 524 kts | 69° |
| 2026-05-06 14:18 | 28.92865 | 117.36638 | 26510 ft | 524 kts | 69° |
| 2026-05-06 14:19 | 28.94630 | 117.41823 | 26510 ft | 524 kts | 69° |
| 2026-05-06 14:19 | 28.95953 | 117.45705 | 26507 ft | 524 kts | 69° |
| 2026-05-06 14:19 | 28.97262 | 117.49552 | 26508 ft | 524 kts | 69° |
| 2026-05-06 14:19 | 28.98591 | 117.53461 | 26507 ft | 524 kts | 69° |
| 2026-05-06 14:20 | 28.99462 | 117.56025 | 26509 ft | 524 kts | 69° |
| 2026-05-06 14:20 | 29.00329 | 117.58584 | 26513 ft | 524 kts | 69° |
| 2026-05-06 14:20 | 29.01649 | 117.62472 | 26514 ft | 524 kts | 69° |
| 2026-05-06 14:20 | 29.03831 | 117.68909 | 26518 ft | 524 kts | 69° |
| 2026-05-06 14:21 | 29.05146 | 117.72797 | 26519 ft | 525 kts | 69° |
| 2026-05-06 14:21 | 29.06463 | 117.76693 | 26514 ft | 525 kts | 69° |
| 2026-05-06 14:21 | 29.07774 | 117.80574 | 26515 ft | 525 kts | 69° |
| 2026-05-06 14:21 | 29.09086 | 117.84480 | 26523 ft | 525 kts | 69° |
| 2026-05-06 14:22 | 29.10386 | 117.88360 | 26524 ft | 525 kts | 69° |
| 2026-05-06 14:22 | 29.11692 | 117.92255 | 26526 ft | 525 kts | 69° |
| 2026-05-06 14:22 | 29.12998 | 117.96153 | 26523 ft | 525 kts | 69° |
| 2026-05-06 14:22 | 29.14289 | 117.99995 | 26523 ft | 525 kts | 69° |
| 2026-05-06 14:23 | 29.15595 | 118.03877 | 26520 ft | 525 kts | 69° |
| 2026-05-06 14:23 | 29.16908 | 118.07785 | 26527 ft | 525 kts | 69° |
| 2026-05-06 14:23 | 29.18213 | 118.11674 | 26525 ft | 524 kts | 69° |
| 2026-05-06 14:23 | 29.19516 | 118.15574 | 26529 ft | 524 kts | 69° |
| 2026-05-06 14:24 | 29.20814 | 118.19468 | 26535 ft | 524 kts | 69° |
| 2026-05-06 14:24 | 29.22109 | 118.23361 | 26528 ft | 524 kts | 69° |
| 2026-05-06 14:24 | 29.23403 | 118.27263 | 26528 ft | 524 kts | 69° |
| 2026-05-06 14:24 | 29.24697 | 118.31165 | 26534 ft | 524 kts | 69° |
| 2026-05-06 14:25 | 29.25988 | 118.35056 | 26533 ft | 524 kts | 69° |
| 2026-05-06 14:25 | 29.27285 | 118.38962 | 26527 ft | 524 kts | 69° |
| 2026-05-06 14:25 | 29.28562 | 118.42809 | 26535 ft | 524 kts | 69° |
| 2026-05-06 14:25 | 29.29856 | 118.46714 | 26535 ft | 524 kts | 69° |
| 2026-05-06 14:26 | 29.31145 | 118.50616 | 26534 ft | 524 kts | 69° |
| 2026-05-06 14:26 | 29.32427 | 118.54515 | 26538 ft | 524 kts | 69° |
| 2026-05-06 14:26 | 29.33712 | 118.58433 | 26547 ft | 524 kts | 69° |
| 2026-05-06 14:26 | 29.34997 | 118.62351 | 26539 ft | 524 kts | 69° |
| 2026-05-06 14:27 | 29.36282 | 118.66259 | 26540 ft | 524 kts | 69° |
| 2026-05-06 14:27 | 29.37571 | 118.70168 | 26539 ft | 524 kts | 69° |
| 2026-05-06 14:27 | 29.38844 | 118.74028 | 26537 ft | 524 kts | 69° |
| 2026-05-06 14:27 | 29.40131 | 118.77942 | 26532 ft | 525 kts | 69° |
| 2026-05-06 14:28 | 29.41419 | 118.81862 | 26535 ft | 525 kts | 69° |
| 2026-05-06 14:28 | 29.42698 | 118.85772 | 26540 ft | 525 kts | 69° |
| 2026-05-06 14:28 | 29.43979 | 118.89696 | 26539 ft | 525 kts | 69° |
| 2026-05-06 14:28 | 29.45255 | 118.93618 | 26533 ft | 525 kts | 69° |
| 2026-05-06 14:29 | 29.46528 | 118.97536 | 26521 ft | 524 kts | 69° |
| 2026-05-06 14:29 | 29.47800 | 119.01456 | 26535 ft | 525 kts | 68° |
| 2026-05-06 14:29 | 29.49069 | 119.05363 | 27589 ft | 524 kts | 69° |
| 2026-05-06 14:29 | 29.50323 | 119.09223 | 26493 ft | 520 kts | 69° |
| 2026-05-06 14:30 | 29.51594 | 119.13131 | 26562 ft | 525 kts | 69° |
| 2026-05-06 14:30 | 29.52874 | 119.17063 | 27266 ft | 526 kts | 69° |
| 2026-05-06 14:30 | 29.54146 | 119.20977 | 26545 ft | 521 kts | 69° |
| 2026-05-06 14:30 | 29.55413 | 119.24888 | 26521 ft | 524 kts | 69° |
| 2026-05-06 14:31 | 29.56681 | 119.28818 | 26522 ft | 525 kts | 69° |
| 2026-05-06 14:31 | 29.57949 | 119.32757 | 26531 ft | 526 kts | 69° |
| 2026-05-06 14:31 | 29.59218 | 119.36706 | 26533 ft | 525 kts | 69° |
| 2026-05-06 14:31 | 29.60461 | 119.40588 | 26529 ft | 526 kts | 69° |
| 2026-05-06 14:32 | 29.61710 | 119.44536 | 26529 ft | 526 kts | 71° |
| 2026-05-06 14:32 | 29.62619 | 119.48609 | 26531 ft | 527 kts | 79° |
| 2026-05-06 14:32 | 29.63019 | 119.52791 | 26532 ft | 527 kts | 88° |
| 2026-05-06 14:32 | 29.62967 | 119.56993 | 26534 ft | 526 kts | 92° |
| 2026-05-06 14:33 | 29.62850 | 119.61209 | 26535 ft | 526 kts | 92° |
| 2026-05-06 14:33 | 29.62737 | 119.65387 | 26536 ft | 526 kts | 92° |
| 2026-05-06 14:33 | 29.62632 | 119.69598 | 26534 ft | 525 kts | 91° |
| 2026-05-06 14:33 | 29.62543 | 119.73799 | 26535 ft | 526 kts | 91° |
| 2026-05-06 14:34 | 29.62463 | 119.78003 | 26535 ft | 525 kts | 92° |
| 2026-05-06 14:34 | 29.62387 | 119.82147 | 26536 ft | 525 kts | 92° |
| 2026-05-06 14:34 | 29.62306 | 119.86339 | 26538 ft | 525 kts | 92° |
| 2026-05-06 14:34 | 29.62222 | 119.90534 | 26533 ft | 525 kts | 92° |
| 2026-05-06 14:35 | 29.62135 | 119.94658 | 26534 ft | 525 kts | 92° |
| 2026-05-06 14:35 | 29.62041 | 119.98849 | 26533 ft | 524 kts | 92° |
| 2026-05-06 14:35 | 29.61944 | 120.03042 | 26533 ft | 524 kts | 92° |
| 2026-05-06 14:35 | 29.61841 | 120.07231 | 26532 ft | 525 kts | 92° |
| 2026-05-06 14:36 | 29.61737 | 120.11415 | 26534 ft | 525 kts | 92° |
| 2026-05-06 14:36 | 29.61637 | 120.15551 | 26533 ft | 525 kts | 92° |
| 2026-05-06 14:36 | 29.61536 | 120.19738 | 26536 ft | 525 kts | 92° |
| 2026-05-06 14:36 | 29.61434 | 120.23928 | 26540 ft | 525 kts | 92° |
| 2026-05-06 14:37 | 29.61333 | 120.28129 | 26539 ft | 525 kts | 92° |
| 2026-05-06 14:37 | 29.61237 | 120.32325 | 26542 ft | 525 kts | 92° |
| 2026-05-06 14:37 | 29.61143 | 120.36510 | 26537 ft | 525 kts | 92° |
| 2026-05-06 14:37 | 29.61046 | 120.40707 | 26543 ft | 524 kts | 92° |
| 2026-05-06 14:38 | 29.60949 | 120.44887 | 26548 ft | 524 kts | 91° |
| 2026-05-06 14:38 | 29.60850 | 120.49014 | 26548 ft | 524 kts | 91° |
| 2026-05-06 14:38 | 29.60743 | 120.53216 | 26541 ft | 524 kts | 92° |
| 2026-05-06 14:38 | 29.60634 | 120.57399 | 26544 ft | 525 kts | 92° |
| 2026-05-06 14:39 | 29.60528 | 120.61494 | 26543 ft | 525 kts | 92° |
| 2026-05-06 14:39 | 29.60417 | 120.65777 | 26556 ft | 525 kts | 92° |
| 2026-05-06 14:39 | 29.60308 | 120.69967 | 26557 ft | 525 kts | 92° |
| 2026-05-06 14:39 | 29.60235 | 120.74172 | 26558 ft | 525 kts | 88° |
| 2026-05-06 14:40 | 29.60585 | 120.78336 | 26550 ft | 525 kts | 79° |
| 2026-05-06 14:40 | 29.61465 | 120.82400 | 26551 ft | 523 kts | 70° |
| 2026-05-06 14:40 | 29.62850 | 120.86258 | 26553 ft | 521 kts | 61° |
| 2026-05-06 14:40 | 29.64648 | 120.89747 | 26554 ft | 518 kts | 54° |
| 2026-05-06 14:41 | 29.66622 | 120.93156 | 26543 ft | 519 kts | 54° |
| 2026-05-06 14:41 | 29.68612 | 120.96610 | 26541 ft | 518 kts | 54° |
| 2026-05-06 14:41 | 29.70593 | 121.00068 | 26549 ft | 517 kts | 54° |
| 2026-05-06 14:41 | 29.72566 | 121.03524 | 26549 ft | 517 kts | 54° |
| 2026-05-06 14:42 | 29.74537 | 121.06984 | 26554 ft | 518 kts | 54° |
| 2026-05-06 14:42 | 29.76517 | 121.10451 | 26550 ft | 518 kts | 54° |
| 2026-05-06 14:42 | 29.78504 | 121.13928 | 26557 ft | 518 kts | 54° |
| 2026-05-06 14:42 | 29.80455 | 121.17343 | 26560 ft | 518 kts | 54° |
| 2026-05-06 14:43 | 29.82436 | 121.20816 | 26564 ft | 519 kts | 54° |
| 2026-05-06 14:43 | 29.84408 | 121.24285 | 26497 ft | 519 kts | 54° |
| 2026-05-06 14:43 | 29.86379 | 121.27757 | 26258 ft | 517 kts | 54° |
| 2026-05-06 14:43 | 29.88534 | 121.31058 | 26014 ft | 513 kts | 45° |
| 2026-05-06 14:44 | 29.91095 | 121.33876 | 25774 ft | 508 kts | 36° |
| 2026-05-06 14:44 | 29.94008 | 121.36169 | 25545 ft | 504 kts | 26° |
| 2026-05-06 14:44 | 29.97085 | 121.38089 | 25311 ft | 504 kts | 25° |
| 2026-05-06 14:45 | 30.03225 | 121.41928 | 24852 ft | 505 kts | 25° |
| 2026-05-06 14:45 | 30.06312 | 121.43868 | 24626 ft | 506 kts | 26° |
| 2026-05-06 14:45 | 30.09399 | 121.45810 | 24398 ft | 506 kts | 26° |
| 2026-05-06 14:45 | 30.12488 | 121.47753 | 24171 ft | 505 kts | 26° |
| 2026-05-06 14:46 | 30.15570 | 121.49693 | 23958 ft | 503 kts | 26° |
| 2026-05-06 14:46 | 30.18641 | 121.51625 | 23738 ft | 502 kts | 26° |
| 2026-05-06 14:46 | 30.21694 | 121.53543 | 23522 ft | 499 kts | 26° |
| 2026-05-06 14:46 | 30.24738 | 121.55454 | 23264 ft | 497 kts | 26° |
| 2026-05-06 14:47 | 30.27763 | 121.57355 | 23005 ft | 494 kts | 26° |
| 2026-05-06 14:47 | 30.30741 | 121.59214 | 22748 ft | 492 kts | 25° |
| 2026-05-06 14:47 | 30.33752 | 121.61085 | 22491 ft | 491 kts | 25° |
| 2026-05-06 14:47 | 30.36760 | 121.62952 | 22253 ft | 489 kts | 25° |
| 2026-05-06 14:48 | 30.39761 | 121.64817 | 22006 ft | 488 kts | 25° |
| 2026-05-06 14:48 | 30.42745 | 121.66677 | 21757 ft | 486 kts | 26° |
| 2026-05-06 14:48 | 30.45704 | 121.68526 | 21513 ft | 484 kts | 26° |
| 2026-05-06 14:48 | 30.48674 | 121.70389 | 21272 ft | 487 kts | 26° |
| 2026-05-06 14:49 | 30.51621 | 121.72240 | 21019 ft | 481 kts | 26° |
| 2026-05-06 14:49 | 30.54525 | 121.74060 | 20788 ft | 479 kts | 26° |
| 2026-05-06 14:49 | 30.57447 | 121.75890 | 20563 ft | 477 kts | 26° |
| 2026-05-06 14:49 | 30.60394 | 121.77648 | 20325 ft | 474 kts | 21° |
| 2026-05-06 14:50 | 30.63481 | 121.78933 | 20093 ft | 469 kts | 12° |
| 2026-05-06 14:50 | 30.66636 | 121.79831 | 19859 ft | 467 kts | 11° |
| 2026-05-06 14:50 | 30.69776 | 121.80708 | 19399 ft | 460 kts | 11° |
| 2026-05-06 14:50 | 30.72881 | 121.81580 | 18553 ft | 458 kts | 11° |
| 2026-05-06 14:51 | 30.75972 | 121.82452 | 17704 ft | 456 kts | 11° |
| 2026-05-06 14:51 | 30.79035 | 121.83323 | 16928 ft | 450 kts | 11° |
| 2026-05-06 14:51 | 30.82018 | 121.84172 | 16211 ft | 445 kts | 11° |
| 2026-05-06 14:51 | 30.85008 | 121.85020 | 15486 ft | 440 kts | 11° |
| 2026-05-06 14:52 | 30.87980 | 121.85718 | 14800 ft | 432 kts | 4° |
| 2026-05-06 14:52 | 30.90941 | 121.85725 | 14137 ft | 423 kts | 352° |
| 2026-05-06 14:52 | 30.93783 | 121.85028 | 13439 ft | 414 kts | 340° |
| 2026-05-06 14:52 | 30.96396 | 121.83690 | 12778 ft | 405 kts | 328° |
| 2026-05-06 14:53 | 30.98657 | 121.81832 | 12164 ft | 396 kts | 318° |
| 2026-05-06 14:53 | 31.00731 | 121.79747 | 11527 ft | 390 kts | 317° |
| 2026-05-06 14:53 | 31.02727 | 121.77742 | 11275 ft | 376 kts | 317° |
| 2026-05-06 14:53 | 31.04659 | 121.75793 | 11152 ft | 359 kts | 317° |
| 2026-05-06 14:54 | 31.06493 | 121.73918 | 11031 ft | 343 kts | 316° |
| 2026-05-06 14:54 | 31.08219 | 121.72137 | 10913 ft | 328 kts | 316° |
| 2026-05-06 14:54 | 31.09890 | 121.70407 | 10799 ft | 315 kts | 316° |
| 2026-05-06 14:54 | 31.11491 | 121.68749 | 10677 ft | 302 kts | 317° |
| 2026-05-06 14:55 | 31.13184 | 121.67347 | 10431 ft | 296 kts | 329° |
| 2026-05-06 14:55 | 31.15064 | 121.66426 | 10357 ft | 295 kts | 340° |
| 2026-05-06 14:55 | 31.17003 | 121.65735 | 10241 ft | 295 kts | 340° |
| 2026-05-06 14:55 | 31.18961 | 121.65028 | 10112 ft | 295 kts | 340° |
| 2026-05-06 14:56 | 31.20920 | 121.64316 | 9987 ft | 294 kts | 340° |
| 2026-05-06 14:56 | 31.22888 | 121.63597 | 9465 ft | 299 kts | 340° |
| 2026-05-06 14:56 | 31.24844 | 121.62885 | 8868 ft | 291 kts | 340° |
| 2026-05-06 14:56 | 31.26769 | 121.62180 | 8284 ft | 288 kts | 339° |
| 2026-05-06 14:57 | 31.28673 | 121.61460 | 7716 ft | 287 kts | 339° |
| 2026-05-06 14:57 | 31.30560 | 121.60733 | 7165 ft | 285 kts | 339° |
| 2026-05-06 14:57 | 31.32439 | 121.60010 | 6629 ft | 285 kts | 339° |
| 2026-05-06 14:57 | 31.34268 | 121.59313 | 6500 ft | 274 kts | 339° |
| 2026-05-06 14:58 | 31.36039 | 121.58642 | 6416 ft | 261 kts | 339° |
| 2026-05-06 14:58 | 31.37742 | 121.58153 | 6307 ft | 244 kts | 356° |
| 2026-05-06 14:58 | 31.39303 | 121.58593 | 6198 ft | 222 kts | 28° |
| 2026-05-06 14:58 | 31.40356 | 121.59750 | 5978 ft | 200 kts | 58° |
| 2026-05-06 14:59 | 31.40813 | 121.61237 | 5504 ft | 188 kts | 82° |
| 2026-05-06 14:59 | 31.41073 | 121.62686 | 5106 ft | 176 kts | 81° |
| 2026-05-06 14:59 | 31.41321 | 121.64023 | 4785 ft | 165 kts | 81° |
| 2026-05-06 14:59 | 31.41562 | 121.65310 | 4463 ft | 161 kts | 82° |
| 2026-05-06 15:00 | 31.41677 | 121.66585 | 4161 ft | 154 kts | 99° |
| 2026-05-06 15:00 | 31.41425 | 121.67771 | 3879 ft | 147 kts | 120° |
| 2026-05-06 15:00 | 31.40874 | 121.68749 | 3615 ft | 143 kts | 137° |
| 2026-05-06 15:00 | 31.40068 | 121.69355 | 3374 ft | 136 kts | 162° |
| 2026-05-06 15:01 | 31.39187 | 121.69766 | 3179 ft | 134 kts | 161° |
| 2026-05-06 15:01 | 31.38303 | 121.70152 | 3137 ft | 136 kts | 163° |
| 2026-05-06 15:01 | 31.37415 | 121.70514 | 3074 ft | 136 kts | 163° |
| 2026-05-06 15:01 | 31.36514 | 121.70868 | 3014 ft | 137 kts | 163° |
| 2026-05-06 15:02 | 31.35628 | 121.71210 | 2974 ft | 134 kts | 164° |
| 2026-05-06 15:02 | 31.34740 | 121.71550 | 2971 ft | 136 kts | 163° |
| 2026-05-06 15:02 | 31.33840 | 121.71893 | 2974 ft | 136 kts | 163° |
| 2026-05-06 15:02 | 31.32942 | 121.72234 | 2970 ft | 136 kts | 163° |
| 2026-05-06 15:03 | 31.32036 | 121.72578 | 2972 ft | 137 kts | 163° |
| 2026-05-06 15:03 | 31.31131 | 121.72921 | 2934 ft | 138 kts | 163° |
| 2026-05-06 15:03 | 31.30224 | 121.73264 | 2813 ft | 136 kts | 163° |
| 2026-05-06 15:03 | 31.29324 | 121.73606 | 2672 ft | 135 kts | 162° |
| 2026-05-06 15:04 | 31.28444 | 121.73939 | 2496 ft | 134 kts | 162° |
| 2026-05-06 15:04 | 31.27574 | 121.74268 | 2333 ft | 130 kts | 162° |
| 2026-05-06 15:04 | 31.26711 | 121.74595 | 2166 ft | 130 kts | 163° |
| 2026-05-06 15:04 | 31.25856 | 121.74919 | 1997 ft | 129 kts | 163° |
| 2026-05-06 15:05 | 31.25003 | 121.75241 | 1826 ft | 128 kts | 163° |
| 2026-05-06 15:05 | 31.24163 | 121.75559 | 1663 ft | 127 kts | 163° |
| 2026-05-06 15:05 | 31.23326 | 121.75876 | 1484 ft | 127 kts | 163° |
| 2026-05-06 15:05 | 31.22483 | 121.76195 | 1316 ft | 128 kts | 161° |
| 2026-05-06 15:06 | 31.21654 | 121.76508 | 1149 ft | 126 kts | 161° |
| 2026-05-06 15:06 | 31.20826 | 121.76821 | 982 ft | 125 kts | 161° |
| 2026-05-06 15:06 | 31.19998 | 121.77134 | 855 ft | 126 kts | 160° |
| 2026-05-06 15:06 | 31.19151 | 121.77460 | 711 ft | 130 kts | 160° |
| 2026-05-06 15:07 | 31.18277 | 121.77797 | 529 ft | 133 kts | 160° |
| 2026-05-06 15:07 | 31.17391 | 121.78135 | 357 ft | 135 kts | 161° |
| 2026-05-06 15:07 | 31.16514 | 121.78459 | 207 ft | 134 kts | 161° |
| 2026-05-06 15:07 | 31.15628 | 121.78781 | 49 ft | 131 kts | 161° |
| 2026-05-06 15:08 | 31.14821 | 121.79047 | 27 ft | 108 kts | 159° |
| 2026-05-06 15:08 | 31.14330 | 121.79280 | 22 ft | 43 kts | 162° |
| 2026-05-06 15:08 | 31.14215 | 121.79331 | 21 ft | 15 kts | 153° |
| 2026-05-06 15:08 | 31.14171 | 121.79364 | 22 ft | 10 kts | 143° |
| 2026-05-06 15:09 | 31.14085 | 121.79466 | 21 ft | 16 kts | 130° |
| 2026-05-06 15:09 | 31.14052 | 121.79509 | 22 ft | 10 kts | 132° |
| 2026-05-06 15:09 | 31.14005 | 121.79569 | 23 ft | 7 kts | 133° |
| 2026-05-06 15:09 | 31.13996 | 121.79581 | 23 ft | 2 kts | 133° |
| 2026-05-06 15:10 | 31.13989 | 121.79589 | 25 ft | 1 kts | 133° |
| 2026-05-06 15:10 | 31.13962 | 121.79617 | 25 ft | 7 kts | 141° |
| 2026-05-06 15:10 | 31.13918 | 121.79648 | 23 ft | 8 kts | 154° |
| 2026-05-06 15:10 | 31.13865 | 121.79671 | 23 ft | 8 kts | 162° |
| 2026-05-06 15:11 | 31.13838 | 121.79681 | 24 ft | 1 kts | 162° |
| 2026-05-06 15:11 | 31.13830 | 121.79684 | 23 ft | 1 kts | 162° |
| 2026-05-06 15:11 | 31.13813 | 121.79690 | 23 ft | 4 kts | 163° |
| 2026-05-06 15:11 | 31.13785 | 121.79700 | 23 ft | 4 kts | 163° |
| 2026-05-06 15:12 | 31.13768 | 121.79706 | 24 ft | 0 kts | 163° |
| 2026-05-06 15:12 | 31.13748 | 121.79718 | 23 ft | 4 kts | 144° |
| 2026-05-06 15:12 | 31.13734 | 121.79743 | 23 ft | 3 kts | 111° |
| 2026-05-06 15:12 | 31.13733 | 121.79770 | 23 ft | 3 kts | 83° |
| 2026-05-06 15:13 | 31.13738 | 121.79795 | 24 ft | 3 kts | 74° |
| 2026-05-06 15:13 | 31.13744 | 121.79817 | 24 ft | 3 kts | 71° |
| 2026-05-06 15:13 | 31.13751 | 121.79840 | 23 ft | 4 kts | 71° |
| 2026-05-06 15:13 | 31.13763 | 121.79880 | 23 ft | 5 kts | 72° |
| 2026-05-06 15:14 | 31.13772 | 121.79915 | 25 ft | 3 kts | 72° |
| 2026-05-06 15:14 | 31.13780 | 121.79941 | 23 ft | 3 kts | 72° |
| 2026-05-06 15:14 | 31.13787 | 121.79967 | 25 ft | 3 kts | 72° |
| 2026-05-06 15:14 | 31.13793 | 121.79992 | 23 ft | 3 kts | 76° |
| 2026-05-06 15:15 | 31.13791 | 121.80016 | 23 ft | 3 kts | 106° |
| 2026-05-06 15:15 | 31.13775 | 121.80039 | 25 ft | 4 kts | 143° |
| 2026-05-06 15:15 | 31.13748 | 121.80052 | 23 ft | 4 kts | 161° |
| 2026-05-06 15:15 | 31.13720 | 121.80063 | 23 ft | 4 kts | 162° |
| 2026-05-06 15:16 | 31.13690 | 121.80074 | 23 ft | 5 kts | 163° |
| 2026-05-06 15:16 | 31.13657 | 121.80086 | 23 ft | 5 kts | 163° |
| 2026-05-06 15:16 | 31.13623 | 121.80098 | 23 ft | 5 kts | 162° |
| 2026-05-06 15:16 | 31.13586 | 121.80112 | 23 ft | 6 kts | 161° |
| 2026-05-06 15:17 | 31.13547 | 121.80127 | 23 ft | 6 kts | 162° |
| 2026-05-06 15:17 | 31.13503 | 121.80144 | 23 ft | 7 kts | 162° |
| 2026-05-06 15:17 | 31.13459 | 121.80161 | 23 ft | 4 kts | 162° |
| 2026-05-06 15:17 | 31.13430 | 121.80172 | 23 ft | 5 kts | 162° |
| 2026-05-06 15:18 | 31.13398 | 121.80184 | 23 ft | 5 kts | 162° |
| 2026-05-06 15:18 | 31.13350 | 121.80201 | 23 ft | 8 kts | 162° |
| 2026-05-06 15:18 | 31.13301 | 121.80220 | 23 ft | 8 kts | 162° |
| 2026-05-06 15:18 | 31.13248 | 121.80240 | 23 ft | 8 kts | 162° |
| 2026-05-06 15:19 | 31.13193 | 121.80261 | 24 ft | 9 kts | 162° |
| 2026-05-06 15:19 | 31.13134 | 121.80283 | 23 ft | 9 kts | 162° |
| 2026-05-06 15:19 | 31.13083 | 121.80302 | 23 ft | 7 kts | 162° |
| 2026-05-06 15:19 | 31.13037 | 121.80320 | 23 ft | 7 kts | 162° |
| 2026-05-06 15:20 | 31.12988 | 121.80338 | 24 ft | 8 kts | 162° |
| 2026-05-06 15:20 | 31.12949 | 121.80362 | 24 ft | 6 kts | 131° |
| 2026-05-06 15:20 | 31.12942 | 121.80407 | 23 ft | 6 kts | 83° |
| 2026-05-06 15:20 | 31.12953 | 121.80451 | 24 ft | 6 kts | 72° |
| 2026-05-06 15:21 | 31.12965 | 121.80496 | 24 ft | 6 kts | 72° |
| 2026-05-06 15:21 | 31.12977 | 121.80541 | -3 ft | 6 kts | 72° |
| 2026-05-06 15:21 | 31.12989 | 121.80585 | 25 ft | 6 kts | 72° |
| 2026-05-06 15:21 | 31.13002 | 121.80629 | 23 ft | 6 kts | 72° |
| 2026-05-06 15:22 | 31.13014 | 121.80673 | 23 ft | 6 kts | 72° |
| 2026-05-06 15:22 | 31.13035 | 121.80707 | 23 ft | 5 kts | 37° |
| 2026-05-06 15:22 | 31.13066 | 121.80715 | 23 ft | 4 kts | 355° |
| 2026-05-06 15:22 | 31.13093 | 121.80707 | 23 ft | 4 kts | 346° |
| 2026-05-06 15:23 | 31.13119 | 121.80699 | 23 ft | 4 kts | 343° |
| 2026-05-06 15:23 | 31.13142 | 121.80689 | 24 ft | 4 kts | 340° |
| 2026-05-06 15:23 | 31.13172 | 121.80677 | 24 ft | 4 kts | 342° |
| 2026-05-06 15:23 | 31.13200 | 121.80666 | 24 ft | 4 kts | 342° |
| 2026-05-06 15:24 | 31.13228 | 121.80656 | 23 ft | 6 kts | 342° |
| 2026-05-06 15:24 | 31.13290 | 121.80633 | 23 ft | 10 kts | 342° |
| 2026-05-06 15:24 | 31.13357 | 121.80608 | 23 ft | 10 kts | 343° |
| 2026-05-06 15:24 | 31.13418 | 121.80624 | 23 ft | 9 kts | 42° |
| 2026-05-06 15:25 | 31.13447 | 121.80689 | 23 ft | 9 kts | 58° |
| 2026-05-06 15:25 | 31.13487 | 121.80715 | 23 ft | 6 kts | 4° |
| 2026-05-06 15:25 | 31.13522 | 121.80706 | 23 ft | 0 kts | 341° |
| 2026-05-06 15:25 | 31.13528 | 121.80703 | 25 ft | 1 kts | 341° |
| 2026-05-06 15:26 | 31.13538 | 121.80699 | 23 ft | 1 kts | 341° |
| 2026-05-06 15:26 | 31.13540 | 121.80699 | 23 ft | 0 kts | 341° |